Kansas City, Missouri
Traffic Map
Current Weather Conditions
Kansas City, Missouri
Clear
Clear
27°
Feels Like: 28°
Wind Chill: 27° Ceiling: Unl
Heat Index: 28° Visibility: 10mi
Dew Point: 18° Wind: 9mph
Humidity: 58% Direction: 250° (WSW)
Pressure: 29.86in Gusts: 0mph
Raw Report DataKMKC 291554Z 25008KT 10SM CLR 27/18 A2986 RMK AO2 SLP104 T02720183
Traffic Incident Summary
Active as of:
Severity:
Category:
InformationThere was an issue retrieving the traffic information for this location. Please try a different location or try again shortly.
Advertisements
Track Severe Weather on mobile